createdAt,value
2022-08-17T00:00:14.688Z,23.80
2022-08-17T00:03:22.340Z,23.80
2022-08-17T00:05:56.853Z,23.80
2022-08-17T00:08:33.100Z,23.70
2022-08-17T00:11:01.215Z,23.70
2022-08-17T00:13:37.047Z,23.70
2022-08-17T00:16:14.677Z,23.70
2022-08-17T00:19:00.905Z,23.70
2022-08-17T00:21:49.178Z,23.70
2022-08-17T00:24:21.269Z,23.70
2022-08-17T00:26:48.217Z,23.60
2022-08-17T00:29:19.503Z,23.60
2022-08-17T00:31:48.531Z,23.60
2022-08-17T00:34:15.782Z,23.50
2022-08-17T00:36:42.614Z,23.50
2022-08-17T00:39:09.753Z,23.50
2022-08-17T00:41:36.802Z,23.50
2022-08-17T00:44:09.788Z,23.50
2022-08-17T00:46:43.912Z,23.40
2022-08-17T00:49:12.940Z,23.50
2022-08-17T00:51:48.690Z,23.40
2022-08-17T00:54:31.968Z,23.40
2022-08-17T00:57:11.354Z,23.40
2022-08-17T00:59:47.175Z,23.40
2022-08-17T01:02:41.667Z,23.40
2022-08-17T01:05:19.128Z,23.40
2022-08-17T01:07:48.354Z,23.30
2022-08-17T01:11:00.424Z,23.50
2022-08-17T01:13:04.660Z,23.30
2022-08-17T01:15:37.438Z,23.30
2022-08-17T01:18:11.648Z,23.20
2022-08-17T01:20:49.142Z,23.20
2022-08-17T01:23:20.516Z,23.20
2022-08-17T01:25:55.686Z,23.20
2022-08-17T01:28:52.539Z,23.20
2022-08-17T01:31:15.497Z,23.00
2022-08-17T01:33:42.664Z,23.20
2022-08-17T01:36:10.122Z,23.10
2022-08-17T01:38:39.164Z,23.10
2022-08-17T01:41:12.605Z,23.10
2022-08-17T01:44:00.764Z,23.00
2022-08-17T01:46:34.105Z,23.00
2022-08-17T01:49:06.340Z,23.10
2022-08-17T01:51:33.922Z,23.20
2022-08-17T01:54:06.170Z,22.90
2022-08-17T01:56:35.737Z,22.90
2022-08-17T01:59:03.297Z,22.90
2022-08-17T02:01:33.733Z,22.90
2022-08-17T02:04:01.891Z,22.90
2022-08-17T02:06:45.097Z,22.80
2022-08-17T02:09:23.984Z,22.80
2022-08-17T02:11:56.409Z,22.80
2022-08-17T02:14:24.904Z,22.70
2022-08-17T02:16:53.227Z,22.60
2022-08-17T02:19:20.570Z,22.70
2022-08-17T02:21:52.217Z,22.60
2022-08-17T02:24:59.778Z,22.60
2022-08-17T02:27:22.368Z,22.70
2022-08-17T02:29:49.392Z,22.60
2022-08-17T02:32:28.203Z,22.50
2022-08-17T02:34:58.096Z,22.50
2022-08-17T02:37:26.821Z,22.50
2022-08-17T02:39:56.815Z,22.50
2022-08-17T02:42:38.225Z,22.50
2022-08-17T02:45:15.918Z,22.40
2022-08-17T02:47:44.191Z,22.40
2022-08-17T02:50:14.521Z,22.40
2022-08-17T02:52:44.632Z,22.40
2022-08-17T02:55:28.481Z,22.30
2022-08-17T02:57:56.222Z,22.30
2022-08-17T03:00:28.925Z,22.30
2022-08-17T03:02:57.606Z,22.30
2022-08-17T03:05:28.150Z,22.30
2022-08-17T03:07:55.466Z,22.20
2022-08-17T03:10:24.498Z,22.30
2022-08-17T03:12:53.177Z,22.30
2022-08-17T03:15:31.429Z,22.20
2022-08-17T03:17:59.753Z,22.20
2022-08-17T03:20:30.070Z,22.20
2022-08-17T03:23:01.845Z,22.20
2022-08-17T03:25:42.782Z,22.20
2022-08-17T03:28:12.206Z,22.20
2022-08-17T03:30:40.388Z,22.10
2022-08-17T03:33:10.074Z,22.10
2022-08-17T03:35:40.638Z,22.10
2022-08-17T03:38:10.742Z,22.10
2022-08-17T03:40:58.625Z,22.20
2022-08-17T03:43:29.848Z,22.10
2022-08-17T03:46:28.917Z,22.10
2022-08-17T03:49:25.694Z,22.00
2022-08-17T03:52:13.900Z,22.00
2022-08-17T03:55:00.779Z,22.00
2022-08-17T03:57:28.320Z,22.00
2022-08-17T03:59:55.916Z,22.00
2022-08-17T04:02:27.469Z,22.00
2022-08-17T04:04:54.644Z,22.00
2022-08-17T04:07:25.483Z,22.00
2022-08-17T04:09:52.527Z,21.90
2022-08-17T04:12:22.941Z,21.90
2022-08-17T04:14:53.307Z,21.90
2022-08-17T04:17:28.796Z,22.00
2022-08-17T04:19:56.053Z,21.90
2022-08-17T04:22:31.024Z,21.90
2022-08-17T04:25:15.750Z,21.90
2022-08-17T04:27:42.664Z,21.80
2022-08-17T04:30:10.904Z,21.90
2022-08-17T04:33:07.317Z,21.90
2022-08-17T04:35:43.074Z,21.90
2022-08-17T04:38:14.686Z,21.90
2022-08-17T04:41:00.486Z,22.00
2022-08-17T04:43:29.327Z,22.00
2022-08-17T04:46:04.856Z,22.00
2022-08-17T04:48:40.692Z,22.10
2022-08-17T04:51:23.319Z,22.10
2022-08-17T04:53:54.876Z,22.20
2022-08-17T04:56:25.739Z,22.20
2022-08-17T04:58:58.181Z,22.30
2022-08-17T05:01:28.134Z,22.30
2022-08-17T05:03:59.103Z,22.40
2022-08-17T05:06:28.738Z,22.50
2022-08-17T05:08:57.832Z,22.50
2022-08-17T05:11:27.343Z,22.60
2022-08-17T05:13:55.964Z,22.70
2022-08-17T05:16:25.530Z,22.80
2022-08-17T05:18:53.010Z,23.00
2022-08-17T05:21:22.863Z,22.90
2022-08-17T05:23:54.950Z,23.00
2022-08-17T05:26:26.110Z,23.10
2022-08-17T05:29:02.949Z,23.20
2022-08-17T05:31:31.361Z,23.30
2022-08-17T05:33:58.606Z,23.50
2022-08-17T05:36:42.199Z,23.50
2022-08-17T05:39:16.584Z,23.80
2022-08-17T05:42:09.499Z,23.80
2022-08-17T05:44:36.538Z,23.90
2022-08-17T05:47:05.863Z,24.00
2022-08-17T05:49:37.236Z,24.10
2022-08-17T05:52:43.437Z,24.00
2022-08-17T05:55:38.334Z,24.40
2022-08-17T05:58:33.493Z,24.50
2022-08-17T06:01:10.498Z,24.70
2022-08-17T06:03:58.277Z,24.70
2022-08-17T06:06:40.370Z,24.80
2022-08-17T06:09:33.858Z,24.90
2022-08-17T06:12:52.312Z,25.00
2022-08-17T06:15:56.749Z,25.20
2022-08-17T06:18:29.892Z,25.30
2022-08-17T06:21:07.526Z,25.30
2022-08-17T06:23:39.636Z,25.50
2022-08-17T06:26:16.572Z,25.60
2022-08-17T06:29:04.630Z,25.90
2022-08-17T06:31:38.518Z,25.90
2022-08-17T06:34:11.678Z,26.10
2022-08-17T06:37:07.431Z,26.10
2022-08-17T06:39:59.098Z,26.20
2022-08-17T06:43:06.769Z,26.40
2022-08-17T06:46:07.053Z,26.50
2022-08-17T06:48:47.431Z,26.70
2022-08-17T06:51:40.619Z,26.80
2022-08-17T06:54:32.775Z,27.00
2022-08-17T06:57:25.177Z,27.20
2022-08-17T07:00:28.731Z,27.30
2022-08-17T07:03:32.202Z,27.60
2022-08-17T07:06:21.558Z,27.70
2022-08-17T07:09:09.277Z,27.90
2022-08-17T07:12:10.513Z,28.20
2022-08-17T07:14:53.299Z,28.40
2022-08-17T07:17:47.699Z,28.60
2022-08-17T07:20:17.658Z,28.80
2022-08-17T07:23:08.754Z,29.00
2022-08-17T07:25:35.751Z,29.20
2022-08-17T07:28:07.772Z,29.60
2022-08-17T07:30:52.111Z,29.80
2022-08-17T07:33:36.954Z,30.10
2022-08-17T07:36:04.550Z,30.40
2022-08-17T07:38:35.726Z,30.70
2022-08-17T07:41:08.459Z,30.90
2022-08-17T07:43:41.674Z,31.20
2022-08-17T07:46:29.934Z,31.50
2022-08-17T07:49:34.314Z,31.70
2022-08-17T07:52:48.436Z,32.10
2022-08-17T07:54:57.693Z,32.50
2022-08-17T07:57:32.765Z,33.20
2022-08-17T08:00:03.168Z,33.30
2022-08-17T08:02:47.772Z,33.70
2022-08-17T08:05:49.330Z,34.10
2022-08-17T08:08:21.549Z,34.50
2022-08-17T08:11:07.869Z,35.00
2022-08-17T08:13:40.410Z,35.40
2022-08-17T08:16:24.679Z,35.90
2022-08-17T08:19:00.328Z,36.40
2022-08-17T08:21:58.970Z,36.70
2022-08-17T08:24:57.914Z,37.20
2022-08-17T08:28:01.499Z,37.60
2022-08-17T08:30:29.930Z,38.10
2022-08-17T08:33:17.104Z,38.50
2022-08-17T08:35:53.711Z,39.00
2022-08-17T08:38:49.605Z,39.30
2022-08-17T08:41:36.891Z,39.80
2022-08-17T08:45:00.851Z,40.10
2022-08-17T08:47:42.206Z,40.50
2022-08-17T08:50:43.546Z,41.10
2022-08-17T08:53:34.878Z,41.60
2022-08-17T08:56:29.418Z,42.10
2022-08-17T08:59:23.506Z,42.50
2022-08-17T09:02:10.216Z,43.00
2022-08-17T09:05:14.272Z,43.30
2022-08-17T09:08:25.687Z,43.80
2022-08-17T09:11:06.415Z,44.30
2022-08-17T09:14:00.696Z,44.60
2022-08-17T09:16:36.177Z,44.80
2022-08-17T09:19:34.415Z,45.10
2022-08-17T09:22:21.841Z,45.30
2022-08-17T09:25:03.232Z,45.70
2022-08-17T09:27:51.429Z,46.00
2022-08-17T09:30:20.273Z,46.40
2022-08-17T09:32:56.054Z,46.80
2022-08-17T09:35:36.940Z,47.30
2022-08-17T09:38:33.422Z,47.80
2022-08-17T09:41:19.561Z,48.20
2022-08-17T09:44:31.174Z,48.70
2022-08-17T09:47:12.762Z,49.00
2022-08-17T09:49:50.588Z,49.30
2022-08-17T09:52:28.618Z,49.70
2022-08-17T09:54:58.329Z,50.00
2022-08-17T09:58:00.976Z,50.40
2022-08-17T10:00:36.273Z,50.70
2022-08-17T10:03:45.993Z,51.20
2022-08-17T10:06:24.806Z,51.60
2022-08-17T10:09:16.620Z,51.90
2022-08-17T10:12:46.495Z,52.30
2022-08-17T10:15:30.794Z,52.60
2022-08-17T10:18:21.796Z,52.80
2022-08-17T10:21:31.352Z,52.70
2022-08-17T10:25:02.059Z,52.80
2022-08-17T10:27:52.973Z,52.70
2022-08-17T10:30:28.370Z,52.60
2022-08-17T10:33:04.287Z,52.70
2022-08-17T10:35:53.786Z,52.80
2022-08-17T10:38:47.353Z,52.90
2022-08-17T10:41:41.430Z,53.00
2022-08-17T10:44:36.984Z,53.00
2022-08-17T10:47:16.445Z,53.00
2022-08-17T10:49:54.013Z,53.00
2022-08-17T10:52:22.024Z,52.90
2022-08-17T10:54:51.929Z,52.90
2022-08-17T10:57:34.115Z,52.70
2022-08-17T11:00:41.594Z,52.70
2022-08-17T11:03:23.468Z,52.80
2022-08-17T11:06:28.169Z,53.10
2022-08-17T11:09:20.126Z,53.50
2022-08-17T11:12:20.725Z,53.80
2022-08-17T11:15:02.905Z,53.90
2022-08-17T11:17:53.523Z,53.80
2022-08-17T11:20:49.882Z,53.60
2022-08-17T11:24:03.166Z,53.50
2022-08-17T11:26:35.572Z,53.50
2022-08-17T11:29:15.697Z,53.40
2022-08-17T11:32:00.803Z,53.30
2022-08-17T11:34:30.903Z,53.00
2022-08-17T11:37:25.807Z,52.80
2022-08-17T11:40:33.033Z,52.50
2022-08-17T11:44:02.803Z,52.30
2022-08-17T11:47:18.424Z,52.20
2022-08-17T11:50:29.112Z,52.00
2022-08-17T11:52:56.177Z,51.50
2022-08-17T11:55:35.670Z,51.10
2022-08-17T11:58:29.303Z,50.70
2022-08-17T12:00:59.752Z,50.20
2022-08-17T12:03:55.605Z,49.80
2022-08-17T12:06:58.570Z,49.50
2022-08-17T12:09:30.961Z,49.00
2022-08-17T12:12:21.400Z,48.70
2022-08-17T12:15:11.522Z,48.50
2022-08-17T12:17:42.620Z,48.30
2022-08-17T12:20:28.100Z,48.30
2022-08-17T12:23:06.221Z,48.50
2022-08-17T12:26:01.337Z,48.90
2022-08-17T12:28:36.089Z,49.20
2022-08-17T12:31:06.724Z,49.30
2022-08-17T12:33:37.466Z,49.40
2022-08-17T12:36:08.788Z,49.30
2022-08-17T12:38:37.990Z,49.00
2022-08-17T12:41:31.726Z,48.60
2022-08-17T12:44:03.225Z,48.20
2022-08-17T12:47:04.821Z,47.80
2022-08-17T12:49:39.294Z,47.50
2022-08-17T12:52:25.463Z,47.30
2022-08-17T12:55:02.925Z,47.20
2022-08-17T12:57:35.734Z,47.30
2022-08-17T13:00:29.908Z,47.50
2022-08-17T13:03:07.978Z,47.80
2022-08-17T13:05:55.623Z,48.20
2022-08-17T13:08:36.451Z,48.60
2022-08-17T13:11:24.053Z,49.10
2022-08-17T13:13:56.435Z,49.50
2022-08-17T13:16:30.871Z,49.80
2022-08-17T13:19:20.343Z,50.00
2022-08-17T13:22:12.678Z,50.20
2022-08-17T13:24:53.274Z,50.50
2022-08-17T13:27:23.398Z,50.80
2022-08-17T13:29:59.515Z,51.00
2022-08-17T13:32:46.338Z,51.10
2022-08-17T13:35:44.208Z,51.30
2022-08-17T13:38:49.567Z,51.40
2022-08-17T13:41:35.306Z,51.30
2022-08-17T13:44:04.161Z,51.00
2022-08-17T13:46:33.250Z,50.70
2022-08-17T13:49:03.518Z,50.40
2022-08-17T13:51:50.276Z,50.20
2022-08-17T13:54:42.671Z,50.00
2022-08-17T13:57:25.431Z,49.60
2022-08-17T14:00:07.260Z,49.20
2022-08-17T14:02:35.128Z,48.80
2022-08-17T14:05:02.028Z,48.20
2022-08-17T14:07:39.890Z,47.70
2022-08-17T14:10:15.355Z,47.10
2022-08-17T14:12:44.654Z,46.60
2022-08-17T14:15:15.794Z,46.20
2022-08-17T14:17:42.806Z,45.70
2022-08-17T14:20:12.310Z,45.40
2022-08-17T14:22:45.113Z,45.10
2022-08-17T14:25:16.072Z,44.90
2022-08-17T14:27:52.442Z,44.60
2022-08-17T14:30:26.738Z,44.40
2022-08-17T14:32:57.907Z,44.20
2022-08-17T14:35:27.584Z,44.00
2022-08-17T14:37:55.010Z,43.70
2022-08-17T14:40:29.867Z,43.50
2022-08-17T14:42:57.688Z,43.30
2022-08-17T14:45:29.871Z,43.30
2022-08-17T14:48:03.972Z,43.10
2022-08-17T14:50:31.712Z,43.00
2022-08-17T14:52:59.245Z,43.00
2022-08-17T14:55:29.768Z,43.00
2022-08-17T14:57:56.873Z,43.00
2022-08-17T15:00:24.023Z,43.00
2022-08-17T15:02:58.307Z,42.90
2022-08-17T15:05:32.419Z,42.80
2022-08-17T15:08:04.712Z,42.60
2022-08-17T15:10:32.810Z,42.50
2022-08-17T15:13:00.546Z,42.20
2022-08-17T15:15:28.711Z,42.00
2022-08-17T15:17:56.144Z,41.90
2022-08-17T15:20:28.221Z,41.70
2022-08-17T15:22:57.316Z,41.50
2022-08-17T15:25:27.644Z,41.40
2022-08-17T15:27:55.887Z,41.30
2022-08-17T15:30:24.490Z,41.20
2022-08-17T15:32:55.207Z,41.00
2022-08-17T15:35:29.734Z,40.80
2022-08-17T15:38:10.706Z,40.70
2022-08-17T15:40:44.241Z,40.50
2022-08-17T15:43:28.334Z,40.40
2022-08-17T15:46:10.359Z,40.20
2022-08-17T15:48:41.912Z,40.00
2022-08-17T15:51:31.797Z,39.90
2022-08-17T15:54:19.298Z,39.80
2022-08-17T15:56:49.607Z,39.90
2022-08-17T15:59:16.696Z,40.00
2022-08-17T16:03:01.563Z,40.20
2022-08-17T16:04:31.622Z,40.40
2022-08-17T16:07:00.432Z,40.70
2022-08-17T16:09:27.667Z,40.90
2022-08-17T16:11:56.068Z,40.90
2022-08-17T16:14:32.342Z,41.40
2022-08-17T16:17:03.517Z,41.50
2022-08-17T16:19:30.776Z,41.70
2022-08-17T16:21:57.763Z,41.80
2022-08-17T16:24:25.251Z,41.90
2022-08-17T16:26:52.218Z,41.80
2022-08-17T16:29:19.401Z,41.70
2022-08-17T16:31:46.341Z,41.70
2022-08-17T16:34:18.000Z,41.50
2022-08-17T16:36:55.636Z,41.20
2022-08-17T16:39:29.454Z,40.90
2022-08-17T16:41:57.409Z,40.90
2022-08-17T16:44:29.072Z,40.70
2022-08-17T16:46:57.330Z,40.40
2022-08-17T16:49:35.952Z,40.20
2022-08-17T16:52:12.730Z,39.90
2022-08-17T16:54:44.425Z,39.60
2022-08-17T16:57:13.866Z,39.40
2022-08-17T16:59:45.028Z,39.20
2022-08-17T17:02:25.119Z,38.90
2022-08-17T17:05:19.431Z,38.70
2022-08-17T17:08:07.937Z,38.50
2022-08-17T17:10:43.783Z,38.20
2022-08-17T17:13:21.490Z,38.10
2022-08-17T17:16:26.687Z,37.90
2022-08-17T17:19:16.585Z,37.70
2022-08-17T17:22:23.391Z,37.50
2022-08-17T17:25:27.473Z,37.20
2022-08-17T17:28:14.504Z,37.00
2022-08-17T17:31:18.917Z,36.90
2022-08-17T17:34:04.937Z,36.60
2022-08-17T17:36:54.401Z,36.40
2022-08-17T17:39:41.320Z,36.20
2022-08-17T17:42:16.688Z,36.00
2022-08-17T17:45:03.997Z,35.90
2022-08-17T17:47:32.281Z,35.70
2022-08-17T17:50:01.934Z,35.50
2022-08-17T17:53:02.113Z,35.40
2022-08-17T17:56:00.192Z,35.10
2022-08-17T17:58:54.641Z,34.90
2022-08-17T18:01:34.204Z,34.80
2022-08-17T18:04:27.774Z,34.60
2022-08-17T18:07:12.195Z,34.40
2022-08-17T18:09:53.628Z,34.20
2022-08-17T18:12:43.966Z,34.10
2022-08-17T18:15:25.479Z,33.90
2022-08-17T18:18:14.519Z,33.70
2022-08-17T18:20:53.134Z,33.60
2022-08-17T18:23:27.679Z,33.40
2022-08-17T18:25:58.640Z,33.30
2022-08-17T18:28:39.700Z,33.10
2022-08-17T18:31:12.571Z,32.90
2022-08-17T18:33:44.518Z,32.80
2022-08-17T18:36:12.613Z,32.70
2022-08-17T18:38:42.806Z,32.60
2022-08-17T18:41:30.526Z,32.40
2022-08-17T18:44:32.703Z,32.30
2022-08-17T18:47:28.848Z,32.20
2022-08-17T18:50:00.606Z,32.00
2022-08-17T18:52:33.645Z,32.00
2022-08-17T18:55:16.257Z,31.90
2022-08-17T18:57:47.798Z,31.70
2022-08-17T19:00:35.920Z,31.60
2022-08-17T19:03:22.633Z,31.50
2022-08-17T19:05:57.398Z,31.40
2022-08-17T19:08:30.436Z,31.30
2022-08-17T19:11:22.461Z,31.20
2022-08-17T19:14:16.600Z,31.10
2022-08-17T19:17:00.794Z,31.00
2022-08-17T19:19:45.786Z,30.90
2022-08-17T19:22:31.028Z,30.80
2022-08-17T19:25:12.222Z,30.70
2022-08-17T19:28:25.682Z,30.60
2022-08-17T19:31:04.993Z,30.50
2022-08-17T19:33:32.578Z,30.40
2022-08-17T19:36:08.677Z,30.30
2022-08-17T19:39:13.881Z,30.20
2022-08-17T19:41:48.480Z,30.10
2022-08-17T19:44:49.086Z,30.10
2022-08-17T19:47:53.638Z,30.00
2022-08-17T19:50:41.764Z,29.90
2022-08-17T19:54:03.822Z,29.80
2022-08-17T19:56:40.990Z,29.70
2022-08-17T19:59:50.019Z,29.70
2022-08-17T20:02:57.514Z,29.60
2022-08-17T20:05:30.906Z,29.50
2022-08-17T20:08:17.733Z,29.50
2022-08-17T20:11:07.285Z,29.40
2022-08-17T20:13:48.947Z,29.30
2022-08-17T20:16:18.782Z,29.30
2022-08-17T20:19:09.845Z,29.20
2022-08-17T20:21:39.536Z,29.20
2022-08-17T20:24:28.243Z,29.10
2022-08-17T20:27:14.229Z,29.00
2022-08-17T20:30:13.198Z,29.00
2022-08-17T20:32:56.664Z,28.90
2022-08-17T20:35:39.012Z,28.90
2022-08-17T20:38:14.159Z,28.90
2022-08-17T20:41:04.057Z,28.60
2022-08-17T20:43:34.378Z,29.00
2022-08-17T20:46:38.266Z,28.70
2022-08-17T20:49:15.780Z,28.70
2022-08-17T20:52:01.797Z,28.60
2022-08-17T20:54:52.644Z,28.60
2022-08-17T20:57:32.199Z,28.60
2022-08-17T21:00:15.002Z,28.60
2022-08-17T21:02:50.654Z,28.50
2022-08-17T21:06:15.371Z,28.50
2022-08-17T21:08:58.962Z,28.40
2022-08-17T21:11:57.173Z,28.50
2022-08-17T21:14:41.303Z,28.40
2022-08-17T21:17:49.890Z,28.30
2022-08-17T21:20:41.944Z,28.30
2022-08-17T21:23:20.608Z,28.30
2022-08-17T21:26:05.938Z,28.20
2022-08-17T21:29:29.650Z,28.30
2022-08-17T21:32:05.429Z,28.20
2022-08-17T21:34:43.314Z,28.20
2022-08-17T21:37:18.973Z,28.20
2022-08-17T21:40:10.247Z,28.30
2022-08-17T21:42:49.113Z,28.10
2022-08-17T21:45:38.847Z,28.10
2022-08-17T21:48:24.342Z,28.10
2022-08-17T21:51:28.702Z,28.10
2022-08-17T21:54:14.746Z,28.00
2022-08-17T21:56:47.566Z,28.00
2022-08-17T21:59:32.165Z,28.00
2022-08-17T22:02:16.997Z,28.00
2022-08-17T22:04:58.617Z,28.00
2022-08-17T22:07:51.072Z,28.00
2022-08-17T22:10:42.090Z,28.00
2022-08-17T22:13:24.476Z,27.90
2022-08-17T22:16:27.754Z,27.90
2022-08-17T22:18:58.979Z,27.90
2022-08-17T22:21:26.790Z,27.90
2022-08-17T22:24:15.256Z,28.00
2022-08-17T22:27:11.088Z,27.80
2022-08-17T22:29:44.768Z,27.80
2022-08-17T22:32:41.635Z,27.80
2022-08-17T22:35:32.421Z,27.80
2022-08-17T22:38:18.551Z,27.80
2022-08-17T22:40:52.336Z,27.80
2022-08-17T22:43:26.660Z,27.80
2022-08-17T22:45:59.333Z,27.80
2022-08-17T22:48:29.373Z,27.70
2022-08-17T22:51:15.356Z,27.50
2022-08-17T22:54:11.423Z,27.60
2022-08-17T22:57:06.559Z,27.50
2022-08-17T22:59:51.223Z,27.50
2022-08-17T23:02:31.971Z,27.50
2022-08-17T23:05:13.997Z,27.40
2022-08-17T23:07:42.431Z,27.40
2022-08-17T23:10:12.189Z,27.40
2022-08-17T23:12:39.793Z,27.20
2022-08-17T23:15:32.882Z,27.40
2022-08-17T23:18:05.071Z,27.30
2022-08-17T23:20:36.433Z,27.20
2022-08-17T23:23:06.805Z,27.20
2022-08-17T23:25:35.408Z,27.00
2022-08-17T23:28:05.757Z,27.10
2022-08-17T23:30:39.378Z,27.10
2022-08-17T23:33:25.547Z,27.00
2022-08-17T23:35:54.081Z,27.00
2022-08-17T23:38:22.070Z,27.10
2022-08-17T23:40:49.401Z,26.80
2022-08-17T23:43:23.551Z,27.00
2022-08-17T23:45:59.531Z,27.00
2022-08-17T23:48:35.690Z,26.90
2022-08-17T23:51:20.278Z,26.90
2022-08-17T23:53:51.789Z,26.90
2022-08-17T23:56:24.808Z,27.00
2022-08-17T23:58:54.988Z,27.00
